Terminal Aerodrome Forecast
Issued by NWS Missoula, MT

Home | Current Version | Previous Version | Text Only | Print | Product List | Glossary On
Versions: 1 2 3 4 5 6 7 8 9 10 11 12
000
FTUS45 KMSO 180533
TAFGPI
TAF
KGPI 180533Z 1806/1906 00000KT P6SM FEW150
     FM182000 17005KT P6SM FEW120
     FM182300 22012KT P6SM FEW120
     FM190200 VRB03KT P6SM SCT120=

USA.gov is the U.S. government's official web portal to all federal, state and local government web resources and services.